Time;durP1;ratioP1;P1;durP2;ratioP2;P2;SDS_P1;SDS_P2;PMS_P1;PMS_P2;Temp;Humidity;BMP_temperature;BMP_pressure;BME280_temperature;BME280_humidity;BME280_pressure;Samples;Min_cycle;Max_cycle;Signal;HPM_P1;HPM_P2
2023/08/25 00:01:43;;;;;;;6.47;3.70;;;19.70;99.90;;;;;;5051094;28;20171;-53
2023/08/25 00:04:08;;;;;;;9.18;3.60;;;19.70;99.90;;;;;;5051140;28;20178;-49
2023/08/25 00:06:34;;;;;;;7.72;4.35;;;19.80;99.90;;;;;;5051158;28;20253;-50
2023/08/25 00:08:59;;;;;;;12.07;4.65;;;19.60;99.90;;;;;;5050821;28;20225;-53
2023/08/25 00:11:25;;;;;;;12.95;5.43;;;19.40;99.90;;;;;;5050794;28;20285;-48
2023/08/25 00:13:51;;;;;;;13.70;5.13;;;19.40;99.90;;;;;;5051327;28;20258;-52
2023/08/25 00:16:16;;;;;;;10.13;5.60;;;19.50;99.90;;;;;;5051094;28;20212;-53
2023/08/25 00:18:42;;;;;;;11.13;4.85;;;19.40;99.90;;;;;;5051128;28;20195;-52
2023/08/25 00:21:08;;;;;;;11.32;4.75;;;19.50;99.90;;;;;;5051090;28;20167;-51
2023/08/25 00:23:33;;;;;;;9.82;4.80;;;19.50;99.90;;;;;;5051055;28;20173;-51
2023/08/25 00:25:59;;;;;;;8.90;4.78;;;19.40;99.90;;;;;;5050834;28;20174;-53
2023/08/25 00:28:25;;;;;;;9.50;5.10;;;19.50;99.90;;;;;;5051316;28;20167;-47
2023/08/25 00:30:51;;;;;;;11.75;4.95;;;19.60;99.90;;;;;;5051523;28;20637;-52
2023/08/25 00:33:17;;;;;;;9.80;4.90;;;19.60;99.90;;;;;;5050753;28;20648;-53
2023/08/25 00:35:42;;;;;;;7.55;4.45;;;19.50;99.90;;;;;;5050853;28;20182;-53
2023/08/25 00:38:08;;;;;;;9.40;4.90;;;19.50;99.90;;;;;;5050873;28;20182;-50
2023/08/25 00:40:35;;;;;;;7.47;4.50;;;19.50;99.90;;;;;;5050932;28;20170;-49
2023/08/25 00:43:01;;;;;;;8.38;5.28;;;19.60;99.90;;;;;;5054276;28;20174;-54
2023/08/25 00:45:28;;;;;;;9.77;5.43;;;19.60;99.90;;;;;;5054694;28;20167;-49
2023/08/25 00:47:54;;;;;;;10.10;4.90;;;19.50;99.90;;;;;;5055253;28;20264;-46
2023/08/25 00:50:19;;;;;;;6.20;4.72;;;19.60;99.90;;;;;;5054900;28;20197;-45
2023/08/25 00:52:45;;;;;;;6.28;4.65;;;19.50;99.90;;;;;;5054437;28;20232;-46
2023/08/25 00:55:11;;;;;;;7.13;4.80;;;19.40;99.90;;;;;;5054428;28;20198;-45
2023/08/25 00:57:36;;;;;;;10.68;4.95;;;19.50;99.90;;;;;;5036370;28;20202;-45
2023/08/25 01:00:06;;;;;;;5.82;4.70;;;19.30;99.90;;;;;;5054605;28;20170;-45
2023/08/25 01:02:31;;;;;;;8.27;4.72;;;19.30;99.90;;;;;;5054566;28;20174;-46
2023/08/25 01:04:57;;;;;;;10.20;4.55;;;19.40;99.90;;;;;;5054239;28;20655;-51
2023/08/25 01:07:24;;;;;;;7.07;4.75;;;19.20;99.90;;;;;;5054620;28;20532;-53
2023/08/25 01:09:50;;;;;;;4.93;4.10;;;19.30;99.90;;;;;;5054367;28;20269;-50
2023/08/25 01:12:52;;;;;;;6.03;4.20;;;19.20;99.90;;;;;;5053985;28;20194;-50
2023/08/25 01:15:39;;;;;;;8.32;4.05;;;19.20;99.90;;;;;;5054297;28;20186;-52
2023/08/25 01:18:13;;;;;;;7.97;4.30;;;19.30;99.90;;;;;;5053874;28;20186;-46
2023/08/25 01:20:40;;;;;;;8.13;4.55;;;19.20;99.90;;;;;;5053904;28;20656;-50
2023/08/25 01:23:18;;;;;;;6.93;4.10;;;19.20;99.90;;;;;;5053892;28;20170;-51
2023/08/25 01:25:46;;;;;;;5.70;4.13;;;19.10;99.90;;;;;;5053729;28;20626;-45
2023/08/25 01:28:12;;;;;;;7.80;4.18;;;19.20;99.90;;;;;;5053621;28;20159;-51
2023/08/25 01:30:38;;;;;;;7.38;4.25;;;19.10;99.90;;;;;;5053883;28;20175;-50
2023/08/25 01:33:04;;;;;;;6.78;4.43;;;19.10;99.90;;;;;;5053692;28;20502;-52
2023/08/25 01:36:01;;;;;;;5.80;4.20;;;19.10;99.90;;;;;;5053612;28;20171;-53
2023/08/25 01:38:53;;;;;;;9.80;3.85;;;19.20;99.90;;;;;;5053567;28;20167;-51
2023/08/25 01:41:46;;;;;;;5.78;4.18;;;19.20;99.90;;;;;;5050387;28;20179;-45
2023/08/25 01:44:14;;;;;;;8.27;3.97;;;19.20;99.90;;;;;;5050981;28;20185;-44
2023/08/25 01:46:43;;;;;;;8.68;3.65;;;19.20;99.90;;;;;;5053714;28;20536;-45
2023/08/25 01:49:10;;;;;;;4.65;3.63;;;19.10;99.90;;;;;;5053339;28;20166;-47
2023/08/25 01:51:36;;;;;;;4.85;3.85;;;19.20;99.90;;;;;;5053368;28;20163;-47
2023/08/25 01:54:01;;;;;;;7.00;4.00;;;19.20;99.90;;;;;;5052450;28;20229;-45
2023/08/25 01:56:27;;;;;;;6.30;4.13;;;19.20;99.90;;;;;;5053281;28;20241;-45
2023/08/25 01:58:52;;;;;;;8.30;3.97;;;19.20;99.90;;;;;;5053702;28;20224;-47
2023/08/25 02:01:18;;;;;;;8.70;3.80;;;19.20;99.90;;;;;;5053189;28;20220;-47
2023/08/25 02:03:44;;;;;;;9.73;4.25;;;19.10;99.90;;;;;;5053298;28;20636;-46
2023/08/25 02:06:10;;;;;;;6.43;3.85;;;19.10;99.90;;;;;;5053060;28;20220;-45
2023/08/25 02:08:35;;;;;;;3.80;3.35;;;19.20;99.90;;;;;;5053087;28;20174;-45
2023/08/25 02:11:01;;;;;;;8.43;3.88;;;19.10;99.90;;;;;;5053036;28;20571;-45
2023/08/25 02:13:27;;;;;;;6.38;3.65;;;19.10;99.90;;;;;;5052800;28;20214;-44
2023/08/25 02:15:54;;;;;;;5.90;3.85;;;19.10;99.90;;;;;;5053199;28;20201;-46
2023/08/25 02:18:20;;;;;;;6.80;3.45;;;19.20;99.90;;;;;;5053288;28;20206;-47
2023/08/25 02:20:45;;;;;;;6.65;3.42;;;19.30;99.90;;;;;;5053049;28;20268;-51
2023/08/25 02:23:11;;;;;;;3.67;3.20;;;19.20;99.90;;;;;;5052424;28;20190;-49
2023/08/25 02:25:36;;;;;;;5.57;3.45;;;19.30;99.90;;;;;;5052674;28;20296;-49
2023/08/25 02:28:02;;;;;;;9.18;3.33;;;19.20;99.90;;;;;;5052341;28;20275;-52
2023/08/25 02:30:28;;;;;;;6.32;3.17;;;19.30;99.90;;;;;;5052553;28;20629;-47
2023/08/25 02:32:55;;;;;;;6.20;3.47;;;19.40;99.90;;;;;;5053126;28;20174;-47
2023/08/25 02:35:20;;;;;;;5.20;3.30;;;19.20;99.90;;;;;;5052153;28;20167;-50
2023/08/25 02:37:57;;;;;;;4.80;3.20;;;19.30;99.90;;;;;;5052465;28;20229;-48
2023/08/25 02:40:23;;;;;;;5.20;2.88;;;19.30;99.90;;;;;;5053191;28;20174;-45
2023/08/25 02:42:48;;;;;;;7.75;3.15;;;19.20;99.90;;;;;;5052394;28;20603;-48
2023/08/25 02:45:14;;;;;;;9.43;3.03;;;19.10;99.90;;;;;;5052436;28;20224;-45
2023/08/25 02:47:39;;;;;;;5.25;3.38;;;19.10;99.90;;;;;;5052490;28;20626;-45
2023/08/25 02:50:05;;;;;;;7.82;3.33;;;19.20;99.90;;;;;;5052111;28;20642;-46
2023/08/25 02:52:31;;;;;;;7.70;2.90;;;19.20;99.90;;;;;;5052253;28;20162;-48
2023/08/25 02:54:56;;;;;;;5.32;2.75;;;19.30;99.90;;;;;;5052186;28;20537;-47
2023/08/25 02:57:22;;;;;;;4.55;2.65;;;19.30;99.90;;;;;;5052549;28;20202;-45
2023/08/25 02:59:47;;;;;;;4.45;3.05;;;19.30;99.90;;;;;;5052111;28;20300;-44
2023/08/25 03:02:13;;;;;;;3.05;2.75;;;19.30;99.90;;;;;;5052089;28;20257;-46
2023/08/25 03:04:39;;;;;;;8.48;3.78;;;19.30;99.90;;;;;;5051861;28;20221;-46
2023/08/25 03:07:04;;;;;;;7.07;4.00;;;19.30;99.90;;;;;;5052090;28;20225;-47
2023/08/25 03:09:30;;;;;;;6.60;4.22;;;19.20;99.90;;;;;;5051959;28;20224;-48
2023/08/25 03:11:55;;;;;;;7.07;3.72;;;19.20;99.90;;;;;;5051941;28;20166;-48
2023/08/25 03:14:21;;;;;;;6.93;4.18;;;19.10;99.90;;;;;;5052021;28;20297;-45
2023/08/25 03:16:48;;;;;;;8.75;3.72;;;19.10;99.90;;;;;;5051799;28;20240;-49
2023/08/25 03:19:14;;;;;;;8.20;3.80;;;19.20;99.90;;;;;;5051542;28;20155;-47
2023/08/25 03:21:39;;;;;;;5.80;2.95;;;19.00;99.90;;;;;;5051670;28;20537;-45
2023/08/25 03:24:05;;;;;;;8.82;3.45;;;19.10;99.90;;;;;;5051756;28;20166;-48
2023/08/25 03:26:31;;;;;;;7.32;4.10;;;19.00;99.90;;;;;;5051905;28;20196;-50
2023/08/25 03:28:56;;;;;;;4.15;3.25;;;19.00;99.90;;;;;;5051814;28;20162;-47
2023/08/25 03:31:22;;;;;;;4.00;3.08;;;19.00;99.90;;;;;;5052073;28;20201;-46
2023/08/25 03:33:48;;;;;;;4.43;3.00;;;19.00;99.90;;;;;;5051528;28;20171;-45
2023/08/25 03:36:13;;;;;;;7.20;3.42;;;18.90;99.90;;;;;;5051492;28;21204;-44
2023/08/25 03:38:39;;;;;;;8.57;3.88;;;18.90;99.90;;;;;;5051421;28;20159;-47
2023/08/25 03:41:04;;;;;;;6.68;3.47;;;18.90;99.90;;;;;;5051470;28;20178;-49
2023/08/25 03:43:30;;;;;;;5.68;3.63;;;18.90;99.90;;;;;;5051508;28;20626;-49
2023/08/25 03:45:55;;;;;;;4.32;3.13;;;19.00;99.90;;;;;;5051345;28;20220;-45
2023/08/25 03:48:21;;;;;;;7.88;3.20;;;19.00;99.90;;;;;;5051915;28;20162;-47
2023/08/25 03:50:47;;;;;;;6.18;3.30;;;18.90;99.90;;;;;;5051327;28;20223;-47
2023/08/25 03:53:14;;;;;;;6.07;3.63;;;18.90;99.90;;;;;;5033423;28;20174;-45
2023/08/25 03:55:39;;;;;;;6.75;3.80;;;18.90;99.90;;;;;;5051238;28;20520;-50
2023/08/25 03:58:05;;;;;;;6.45;3.42;;;18.90;99.90;;;;;;5051267;28;20175;-49
2023/08/25 04:00:31;;;;;;;6.07;3.60;;;19.00;99.90;;;;;;5051299;28;20246;-48
2023/08/25 04:02:56;;;;;;;3.50;3.20;;;19.00;99.90;;;;;;5051219;28;20177;-48
2023/08/25 04:05:22;;;;;;;5.28;3.33;;;18.90;99.90;;;;;;5051650;28;20220;-49
2023/08/25 04:07:48;;;;;;;6.82;3.45;;;19.00;99.90;;;;;;5051263;28;20250;-49
2023/08/25 04:10:14;;;;;;;8.77;3.50;;;18.90;99.90;;;;;;5051382;28;20175;-51
2023/08/25 04:12:40;;;;;;;5.70;3.00;;;18.90;99.90;;;;;;5051139;28;20229;-52
2023/08/25 04:15:06;;;;;;;5.45;3.42;;;19.00;99.90;;;;;;5051237;28;20573;-50
2023/08/25 04:17:34;;;;;;;9.65;3.22;;;19.00;99.90;;;;;;5053948;28;20249;-52
2023/08/25 04:20:01;;;;;;;5.75;3.50;;;19.00;99.90;;;;;;5055109;28;20166;-47
2023/08/25 04:22:26;;;;;;;7.05;3.38;;;19.00;99.90;;;;;;5054984;28;20257;-48
2023/08/25 04:24:52;;;;;;;7.80;3.67;;;19.00;99.90;;;;;;5055416;28;20246;-48
2023/08/25 04:27:18;;;;;;;7.28;3.83;;;18.90;99.90;;;;;;5055007;28;20182;-49
2023/08/25 04:29:43;;;;;;;5.13;3.35;;;18.90;99.90;;;;;;5055066;28;20699;-47
2023/08/25 04:32:09;;;;;;;5.80;3.90;;;18.90;99.90;;;;;;5055054;28;20167;-47
2023/08/25 04:34:35;;;;;;;4.97;3.70;;;19.00;99.90;;;;;;5054902;28;20618;-52
2023/08/25 04:37:00;;;;;;;6.82;3.78;;;18.90;99.90;;;;;;5054835;28;20234;-52
2023/08/25 04:39:26;;;;;;;6.00;3.92;;;18.90;99.90;;;;;;5054811;28;20170;-46
2023/08/25 04:41:52;;;;;;;9.52;4.13;;;19.00;99.90;;;;;;5055134;28;20166;-49
2023/08/25 04:44:18;;;;;;;5.30;4.00;;;19.00;99.90;;;;;;5054706;28;20232;-49
2023/08/25 04:46:43;;;;;;;4.95;3.97;;;19.00;99.90;;;;;;5054712;28;20170;-44
2023/08/25 04:49:10;;;;;;;5.05;4.03;;;18.90;99.90;;;;;;5054675;28;20245;-45
2023/08/25 04:51:36;;;;;;;8.95;4.18;;;18.90;99.90;;;;;;5054909;28;20185;-44
2023/08/25 04:54:01;;;;;;;7.57;3.78;;;18.90;99.90;;;;;;5054646;28;20159;-45
2023/08/25 04:56:27;;;;;;;7.85;3.50;;;19.00;99.90;;;;;;5054353;28;20606;-45
2023/08/25 04:58:52;;;;;;;5.93;3.70;;;19.00;99.90;;;;;;5054858;28;20514;-45
2023/08/25 05:01:18;;;;;;;5.25;3.10;;;19.00;99.90;;;;;;5054387;28;20645;-45
2023/08/25 05:03:44;;;;;;;8.02;3.83;;;19.00;99.90;;;;;;5054280;28;20645;-45
2023/08/25 05:06:10;;;;;;;6.88;3.67;;;19.10;99.90;;;;;;5054500;28;20225;-52
2023/08/25 05:08:36;;;;;;;6.25;3.97;;;19.00;99.90;;;;;;5054270;28;20568;-53
2023/08/25 05:11:03;;;;;;;7.55;3.60;;;19.10;99.90;;;;;;5054190;28;20246;-50
2023/08/25 05:13:28;;;;;;;5.25;4.00;;;19.10;99.90;;;;;;5053886;28;20250;-46
2023/08/25 05:15:54;;;;;;;4.25;3.30;;;19.20;99.90;;;;;;5053686;28;20607;-44
2023/08/25 05:18:19;;;;;;;10.50;3.35;;;19.20;99.90;;;;;;5053098;28;20181;-45
2023/08/25 05:20:45;;;;;;;11.52;3.67;;;19.30;99.90;;;;;;5052367;28;20163;-49
2023/08/25 05:23:10;;;;;;;5.10;3.45;;;19.30;99.90;;;;;;5053184;28;20178;-46
2023/08/25 05:25:37;;;;;;;5.15;3.97;;;19.30;99.90;;;;;;5053484;28;20174;-48
2023/08/25 05:28:03;;;;;;;9.38;3.92;;;19.30;99.90;;;;;;5051716;28;20669;-49
2023/08/25 05:30:29;;;;;;;6.55;3.80;;;19.30;99.90;;;;;;5053391;28;20170;-46
2023/08/25 05:32:54;;;;;;;8.23;3.58;;;19.40;99.90;;;;;;5053457;28;20649;-48
2023/08/25 05:35:20;;;;;;;3.45;3.00;;;19.30;99.90;;;;;;5054295;28;20185;-49
2023/08/25 05:37:45;;;;;;;5.60;3.88;;;19.40;99.90;;;;;;5053507;28;20665;-47
2023/08/25 05:40:12;;;;;;;5.60;4.22;;;19.40;99.90;;;;;;5053386;28;20177;-52
2023/08/25 05:42:38;;;;;;;8.18;4.05;;;19.30;99.90;;;;;;5053640;28;20531;-49
2023/08/25 05:45:04;;;;;;;5.72;3.78;;;19.40;99.90;;;;;;5053669;28;20195;-50
2023/08/25 05:47:30;;;;;;;6.07;3.80;;;19.40;99.90;;;;;;5053651;28;20182;-45
2023/08/25 05:49:57;;;;;;;7.88;3.65;;;19.50;99.90;;;;;;5053578;28;20166;-46
2023/08/25 05:52:23;;;;;;;5.25;3.90;;;19.50;99.90;;;;;;5053965;28;20249;-47
2023/08/25 05:54:48;;;;;;;13.25;3.90;;;19.50;99.90;;;;;;5053966;28;20269;-46
2023/08/25 05:57:14;;;;;;;10.68;5.57;;;19.50;99.90;;;;;;5053235;28;20213;-49
2023/08/25 05:59:40;;;;;;;5.75;4.03;;;19.50;99.90;;;;;;5053486;28;20177;-50
2023/08/25 06:02:06;;;;;;;9.75;4.15;;;19.70;99.90;;;;;;5053155;28;20197;-45
2023/08/25 06:04:32;;;;;;;6.60;4.50;;;19.70;99.90;;;;;;5053147;28;20167;-49
2023/08/25 06:06:57;;;;;;;7.72;4.32;;;20.00;99.90;;;;;;5053152;28;20224;-46
2023/08/25 06:09:23;;;;;;;8.35;4.88;;;20.10;99.90;;;;;;5053545;28;20217;-46
2023/08/25 06:11:49;;;;;;;7.95;4.32;;;20.20;99.90;;;;;;5053685;28;20221;-47
2023/08/25 06:14:15;;;;;;;6.68;4.72;;;20.30;99.90;;;;;;5052747;28;20292;-51
2023/08/25 06:16:44;;;;;;;6.47;4.53;;;20.40;99.90;;;;;;5052784;28;20294;-47
2023/08/25 06:19:10;;;;;;;6.55;4.03;;;20.60;99.90;;;;;;5052892;28;20169;-47
2023/08/25 06:21:35;;;;;;;5.90;4.47;;;20.60;99.90;;;;;;5052802;28;20689;-47
2023/08/25 06:24:01;;;;;;;6.90;4.25;;;20.70;99.90;;;;;;5052794;28;20242;-47
2023/08/25 06:26:26;;;;;;;8.65;4.70;;;20.80;99.90;;;;;;5052713;28;20194;-48
2023/08/25 06:28:53;;;;;;;7.70;4.20;;;20.90;99.90;;;;;;5053083;28;20228;-49
2023/08/25 06:31:18;;;;;;;5.28;4.07;;;20.80;99.90;;;;;;5053244;28;20171;-52
2023/08/25 06:33:45;;;;;;;6.47;4.55;;;20.70;99.90;;;;;;5052864;28;20175;-46
2023/08/25 06:36:11;;;;;;;6.57;4.40;;;20.70;99.90;;;;;;5052667;28;20654;-47
2023/08/25 06:38:36;;;;;;;5.60;4.40;;;20.70;99.90;;;;;;5052370;28;20186;-48
2023/08/25 06:41:03;;;;;;;7.47;4.80;;;20.60;99.90;;;;;;5052439;28;20170;-47
2023/08/25 06:43:29;;;;;;;9.68;4.28;;;20.60;99.90;;;;;;5052720;28;20193;-47
2023/08/25 06:45:54;;;;;;;5.68;4.55;;;20.70;99.90;;;;;;5034535;28;20167;-46
2023/08/25 06:48:21;;;;;;;7.22;4.70;;;20.70;99.90;;;;;;5052607;28;20182;-48
2023/08/25 06:50:46;;;;;;;12.43;4.65;;;20.90;99.90;;;;;;5052501;28;20178;-46
2023/08/25 06:53:12;;;;;;;6.57;3.90;;;21.20;99.90;;;;;;5052226;28;20163;-49
2023/08/25 06:55:37;;;;;;;9.80;4.10;;;21.30;99.90;;;;;;5052271;28;20190;-47
2023/08/25 06:58:05;;;;;;;5.05;4.38;;;21.30;99.90;;;;;;5052138;28;20646;-47
2023/08/25 07:00:31;;;;;;;6.72;4.35;;;21.50;99.90;;;;;;5052123;28;20657;-46
2023/08/25 07:02:56;;;;;;;5.55;4.18;;;21.60;99.90;;;;;;5052087;28;20179;-46
2023/08/25 07:05:23;;;;;;;5.38;3.80;;;21.60;99.90;;;;;;5052488;28;20158;-47
2023/08/25 08:37:46;;;;;;;7.90;4.25;;;20.20;99.90;;;;;;5048666;28;20317;-49
2023/08/25 08:40:12;;;;;;;10.50;6.40;;;20.20;99.90;;;;;;5050858;28;20163;-49
2023/08/25 08:42:39;;;;;;;10.48;7.50;;;20.00;99.90;;;;;;5049793;28;20181;-51
2023/08/25 08:45:09;;;;;;;9.32;7.28;;;20.10;99.90;;;;;;5050450;28;20161;-49
2023/08/25 08:47:36;;;;;;;12.95;7.22;;;20.20;99.90;;;;;;5050852;28;20614;-47
2023/08/25 08:50:03;;;;;;;11.82;6.97;;;20.40;99.90;;;;;;5051023;28;20521;-48
2023/08/25 08:52:30;;;;;;;10.48;6.88;;;20.50;99.90;;;;;;5050674;28;20630;-47
2023/08/25 08:54:58;;;;;;;10.90;7.03;;;20.30;99.90;;;;;;5051022;28;20171;-47
2023/08/25 08:57:28;;;;;;;9.13;6.93;;;20.40;99.90;;;;;;5050584;28;20731;-48
2023/08/25 08:59:58;;;;;;;13.07;7.10;;;20.50;99.90;;;;;;5050713;28;20170;-48
2023/08/25 09:02:27;;;;;;;12.77;7.90;;;20.60;99.90;;;;;;5051467;28;20209;-53
2023/08/25 09:04:58;;;;;;;17.25;8.27;;;20.80;99.90;;;;;;5054242;28;20170;-52
2023/08/25 09:07:26;;;;;;;9.40;8.25;;;21.00;99.90;;;;;;5054209;28;20541;-50
2023/08/25 09:09:52;;;;;;;9.27;8.10;;;21.20;99.90;;;;;;5054643;28;20245;-52
2023/08/25 09:12:19;;;;;;;13.27;8.32;;;21.30;99.90;;;;;;5053866;28;20198;-49
2023/08/25 09:14:45;;;;;;;10.55;7.97;;;21.70;99.90;;;;;;5053034;28;20167;-56
2023/08/25 09:17:14;;;;;;;11.40;7.97;;;21.70;99.90;;;;;;5070425;28;20205;-48
2023/08/25 09:19:40;;;;;;;10.63;8.77;;;21.60;99.90;;;;;;5061996;28;20163;-52
2023/08/25 09:22:11;;;;;;;13.38;8.57;;;21.70;99.90;;;;;;5052648;28;20194;-55
2023/08/25 09:24:37;;;;;;;9.85;8.88;;;21.60;99.90;;;;;;5053875;28;20175;-53
2023/08/25 09:27:03;;;;;;;10.40;8.82;;;21.50;99.90;;;;;;5052076;28;20177;-47
2023/08/25 09:29:56;;;;;;;9.02;7.85;;;21.70;99.90;;;;;;5052229;28;20179;-48
2023/08/25 09:32:24;;;;;;;10.70;7.95;;;21.70;99.90;;;;;;5052495;28;20658;-48
2023/08/25 09:34:49;;;;;;;13.80;7.85;;;21.80;99.90;;;;;;5052728;28;20163;-48
2023/08/25 09:37:16;;;;;;;8.25;7.47;;;21.80;99.90;;;;;;5051811;28;20222;-50
2023/08/25 09:39:45;;;;;;;15.50;8.18;;;21.80;99.90;;;;;;5052112;28;20170;-46
2023/08/25 09:42:11;;;;;;;13.32;8.57;;;21.60;99.90;;;;;;5052256;28;20178;-50
2023/08/25 09:44:38;;;;;;;10.65;8.38;;;21.30;99.90;;;;;;5052083;28;20170;-49
2023/08/25 09:47:06;;;;;;;11.50;8.43;;;21.40;99.90;;;;;;5052035;28;20758;-52
2023/08/25 09:49:39;;;;;;;12.00;9.68;;;21.20;99.90;;;;;;5052186;28;20178;-48
2023/08/25 09:52:06;;;;;;;12.13;8.38;;;21.20;99.90;;;;;;5051827;28;20261;-49
2023/08/25 09:54:36;;;;;;;13.63;8.15;;;21.10;99.90;;;;;;5051992;28;20211;-49
2023/08/25 09:57:02;;;;;;;10.65;8.40;;;21.10;99.90;;;;;;5051733;28;20669;-48
2023/08/25 09:59:28;;;;;;;15.77;8.15;;;21.20;99.90;;;;;;5051997;28;20170;-48
2023/08/25 10:01:54;;;;;;;7.90;6.53;;;21.30;99.90;;;;;;5051757;28;20644;-48
2023/08/25 10:04:21;;;;;;;10.40;7.85;;;21.00;99.90;;;;;;5052153;28;20162;-49
2023/08/25 10:06:47;;;;;;;10.13;7.00;;;21.10;99.90;;;;;;5051674;28;20167;-48
2023/08/25 10:09:13;;;;;;;9.68;7.78;;;21.00;99.90;;;;;;5051537;28;20247;-48
2023/08/25 10:11:42;;;;;;;11.02;8.45;;;21.00;99.90;;;;;;5051641;28;20166;-48
2023/08/25 10:14:10;;;;;;;9.45;8.55;;;21.10;99.90;;;;;;5050757;28;20163;-48
2023/08/25 10:16:49;;;;;;;13.57;9.07;;;21.00;99.90;;;;;;5051580;28;20260;-49
2023/08/25 10:19:23;;;;;;;12.65;9.15;;;20.80;99.90;;;;;;5051750;28;20651;-50
2023/08/25 10:21:51;;;;;;;18.15;10.43;;;20.80;99.90;;;;;;5051599;28;20178;-48
2023/08/25 10:24:22;;;;;;;12.85;10.98;;;20.70;99.90;;;;;;5051356;28;20216;-47
2023/08/25 10:26:49;;;;;;;14.55;12.07;;;20.60;99.90;;;;;;5033920;28;20178;-48
2023/08/25 10:29:20;;;;;;;17.63;13.85;;;20.70;99.90;;;;;;5051338;28;20167;-48
2023/08/25 10:31:47;;;;;;;24.23;13.35;;;20.70;99.90;;;;;;5051262;28;20641;-48
2023/08/25 10:34:36;;;;;;;14.80;8.60;;;20.60;99.90;;;;;;5050983;28;20249;-49
2023/08/25 10:37:10;;;;;;;12.88;6.93;;;20.30;99.90;;;;;;5050424;28;20579;-47
2023/08/25 10:39:44;;;;;;;7.10;4.57;;;20.20;99.90;;;;;;5051159;28;20252;-47
2023/08/25 10:42:10;;;;;;;7.93;4.55;;;19.90;99.90;;;;;;5050902;28;20173;-47
2023/08/25 10:44:42;;;;;;;7.65;4.43;;;20.00;99.90;;;;;;5050708;28;20167;-47
2023/08/25 10:47:08;;;;;;;12.18;5.18;;;19.80;99.90;;;;;;5050977;28;20249;-47
2023/08/25 10:49:38;;;;;;;15.23;4.22;;;20.20;99.90;;;;;;5050635;28;20746;-47
2023/08/25 10:52:15;;;;;;;7.78;3.72;;;20.30;99.90;;;;;;5050629;28;20170;-48
2023/08/25 10:54:42;;;;;;;6.47;4.03;;;20.40;99.90;;;;;;5032883;28;20166;-47
2023/08/25 10:57:37;;;;;;;8.88;6.82;;;20.70;99.90;;;;;;5050864;28;20213;-48
2023/08/25 11:00:25;;;;;;;12.25;7.88;;;20.80;99.90;;;;;;5033297;28;20210;-50
2023/08/25 11:02:51;;;;;;;7.50;6.20;;;20.70;99.90;;;;;;5051056;28;20672;-53
2023/08/25 11:05:26;;;;;;;8.45;6.40;;;20.80;99.90;;;;;;5050738;28;20170;-50
2023/08/25 11:07:53;;;;;;;12.50;7.72;;;21.00;99.90;;;;;;5050750;28;20170;-49
2023/08/25 11:10:21;;;;;;;9.30;7.20;;;21.10;99.90;;;;;;5033033;28;20635;-54
2023/08/25 11:12:52;;;;;;;10.15;8.40;;;20.90;99.90;;;;;;5050836;28;20678;-50
2023/08/25 11:15:18;;;;;;;8.32;6.60;;;21.30;99.90;;;;;;5051031;28;20258;-50
2023/08/25 11:17:45;;;;;;;8.48;6.65;;;21.30;99.90;;;;;;5050225;28;20298;-52
2023/08/25 11:20:12;;;;;;;12.15;8.05;;;21.10;99.90;;;;;;5051007;28;20179;-54
2023/08/25 11:22:53;;;;;;;10.85;7.43;;;21.30;99.90;;;;;;5050431;28;20173;-53
2023/08/25 11:25:19;;;;;;;8.25;7.25;;;21.10;99.90;;;;;;5050061;28;20510;-55
2023/08/25 11:27:51;;;;;;;7.97;6.90;;;20.80;99.90;;;;;;5050051;28;20668;-55
2023/08/25 11:30:17;;;;;;;8.48;5.55;;;20.90;99.90;;;;;;5050385;28;20174;-52
2023/08/25 11:32:50;;;;;;;7.50;5.05;;;21.00;99.90;;;;;;5049846;28;20166;-55
2023/08/25 11:35:17;;;;;;;7.57;4.35;;;20.90;99.90;;;;;;5049543;28;20631;-55
2023/08/25 11:37:47;;;;;;;5.60;4.32;;;20.90;99.90;;;;;;5049683;28;20690;-55
2023/08/25 11:40:19;;;;;;;5.18;4.50;;;21.00;99.90;;;;;;5049929;28;20162;-55
2023/08/25 11:42:46;;;;;;;8.52;4.78;;;21.10;99.90;;;;;;5050217;28;20265;-55
2023/08/25 11:45:12;;;;;;;8.20;4.93;;;21.10;99.90;;;;;;5049896;28;20526;-54
2023/08/25 11:47:38;;;;;;;5.65;3.75;;;21.50;99.90;;;;;;5049827;28;20171;-56
2023/08/25 11:50:06;;;;;;;5.38;3.75;;;21.70;99.90;;;;;;5031452;28;20179;-54
2023/08/25 11:52:35;;;;;;;7.90;3.63;;;21.60;99.90;;;;;;5031701;28;20201;-55
2023/08/25 11:55:01;;;;;;;3.65;2.50;;;21.70;99.90;;;;;;5049755;28;20170;-54
2023/08/25 11:57:34;;;;;;;3.72;3.13;;;21.70;99.90;;;;;;5049381;28;20214;-55
2023/08/25 12:00:05;;;;;;;4.63;3.25;;;21.80;99.90;;;;;;5049621;28;20159;-55
2023/08/25 12:02:32;;;;;;;6.65;3.67;;;21.90;99.90;;;;;;5031740;28;20178;-54
2023/08/25 12:05:02;;;;;;;4.45;4.05;;;22.30;99.90;;;;;;5049408;28;20158;-54
2023/08/25 12:07:33;;;;;;;5.88;4.20;;;22.50;99.90;;;;;;5049517;28;20253;-54
2023/08/25 12:10:07;;;;;;;5.18;4.68;;;22.60;99.90;;;;;;5049526;28;20178;-55
2023/08/25 12:12:37;;;;;;;5.28;4.63;;;23.00;99.90;;;;;;5049521;28;20762;-55
2023/08/25 12:15:07;;;;;;;6.25;5.03;;;22.90;99.90;;;;;;5049463;28;20259;-54
2023/08/25 12:17:34;;;;;;;6.25;5.38;;;22.90;99.90;;;;;;5049392;28;20210;-55
2023/08/25 12:20:10;;;;;;;6.25;4.85;;;23.00;99.90;;;;;;5049467;28;20169;-55
2023/08/25 12:22:48;;;;;;;6.72;6.07;;;23.00;99.90;;;;;;5049176;28;20256;-54
2023/08/25 12:25:14;;;;;;;8.93;5.60;;;22.90;99.90;;;;;;5049515;28;20166;-54
2023/08/25 12:27:39;;;;;;;5.63;4.72;;;22.80;99.90;;;;;;5049309;28;20181;-49
2023/08/25 12:30:06;;;;;;;5.97;5.00;;;22.60;99.90;;;;;;5049390;28;20195;-54
2023/08/25 12:32:31;;;;;;;9.32;5.68;;;22.60;99.90;;;;;;5049312;28;20188;-52
2023/08/25 12:34:57;;;;;;;9.25;5.90;;;22.50;99.90;;;;;;5049181;28;20154;-55
2023/08/25 12:37:23;;;;;;;7.63;5.72;;;22.50;99.90;;;;;;5049735;28;20230;-54
2023/08/25 12:39:48;;;;;;;11.00;6.05;;;22.40;99.90;;;;;;5053644;28;20524;-48
2023/08/25 12:42:14;;;;;;;7.53;6.65;;;22.30;99.90;;;;;;5053261;28;20191;-48
2023/08/25 12:44:39;;;;;;;8.02;7.13;;;22.20;99.90;;;;;;5053062;28;20170;-49
2023/08/25 12:47:05;;;;;;;7.70;6.95;;;22.10;99.90;;;;;;5053033;28;20167;-48
2023/08/25 12:49:31;;;;;;;10.48;7.25;;;22.10;99.90;;;;;;5053104;28;20170;-47
2023/08/25 12:51:56;;;;;;;9.70;8.52;;;22.00;99.90;;;;;;5052630;28;20197;-48
2023/08/25 12:54:22;;;;;;;10.68;7.43;;;21.90;99.90;;;;;;5052707;28;20163;-48
2023/08/25 12:56:50;;;;;;;12.13;7.57;;;21.80;99.90;;;;;;5053217;28;20205;-48
2023/08/25 12:59:15;;;;;;;15.30;8.40;;;21.70;99.90;;;;;;5053213;28;20653;-48
2023/08/25 13:01:41;;;;;;;16.02;9.93;;;21.90;99.90;;;;;;5052590;28;20175;-48
2023/08/25 13:04:07;;;;;;;16.08;9.68;;;21.70;99.90;;;;;;5034718;28;20166;-48
2023/08/25 13:06:32;;;;;;;12.68;8.38;;;21.80;99.90;;;;;;5052512;28;20175;-49
2023/08/25 13:08:58;;;;;;;12.95;9.70;;;21.70;99.90;;;;;;5052606;28;20507;-48
2023/08/25 13:11:23;;;;;;;10.00;9.00;;;22.00;99.90;;;;;;5052524;28;20175;-49
2023/08/25 13:13:49;;;;;;;12.10;9.38;;;22.10;99.90;;;;;;5052814;28;20205;-50
2023/08/25 13:16:14;;;;;;;10.23;8.52;;;22.10;99.90;;;;;;5052473;28;20201;-48
2023/08/25 13:18:41;;;;;;;9.15;8.35;;;22.40;99.90;;;;;;5052384;28;20178;-48
2023/08/25 13:21:07;;;;;;;9.95;7.80;;;22.80;99.90;;;;;;5051561;28;20328;-49
2023/08/25 13:23:32;;;;;;;8.85;7.97;;;23.10;99.90;;;;;;5051950;28;20163;-48
2023/08/25 13:25:58;;;;;;;9.43;8.52;;;22.90;99.90;;;;;;5051989;28;20198;-50
2023/08/25 13:28:24;;;;;;;9.48;8.57;;;23.10;99.90;;;;;;5051888;28;20634;-48
2023/08/25 13:30:50;;;;;;;9.35;8.48;;;23.00;99.90;;;;;;5051743;28;20501;-47
2023/08/25 13:33:16;;;;;;;10.57;8.30;;;23.00;99.90;;;;;;5052372;28;20174;-49
2023/08/25 13:35:41;;;;;;;10.88;8.05;;;23.10;99.90;;;;;;5051624;28;20220;-48
2023/08/25 13:38:09;;;;;;;9.07;8.23;;;23.00;99.90;;;;;;5051688;28;20253;-48
2023/08/25 13:40:35;;;;;;;9.75;8.75;;;22.90;99.90;;;;;;5051958;28;20353;-48
2023/08/25 13:43:01;;;;;;;10.93;9.43;;;22.80;99.90;;;;;;5052007;28;20571;-54
2023/08/25 13:45:26;;;;;;;13.77;10.07;;;22.70;99.90;;;;;;5052172;28;20277;-55
2023/08/25 13:47:52;;;;;;;11.60;10.43;;;22.70;99.90;;;;;;5051565;28;20729;-53
2023/08/25 13:50:18;;;;;;;11.38;10.38;;;22.70;99.90;;;;;;5051065;28;20170;-53
2023/08/25 13:52:43;;;;;;;12.57;9.68;;;22.90;99.90;;;;;;5052054;28;20645;-54
2023/08/25 13:55:09;;;;;;;11.02;9.35;;;23.30;99.90;;;;;;5051833;28;21297;-52
2023/08/25 13:57:37;;;;;;;10.98;9.98;;;23.50;99.90;;;;;;5051825;28;20239;-54
2023/08/25 14:00:05;;;;;;;10.38;9.38;;;23.50;99.90;;;;;;5051884;28;20213;-53
2023/08/25 14:02:32;;;;;;;10.70;9.57;;;23.90;99.90;;;;;;5051484;28;20170;-53
2023/08/25 14:04:57;;;;;;;10.40;9.40;;;23.90;99.90;;;;;;5051718;28;20177;-52
2023/08/25 14:07:23;;;;;;;11.00;9.27;;;23.80;99.90;;;;;;5051371;28;20170;-48
2023/08/25 14:09:49;;;;;;;10.60;9.30;;;24.10;99.90;;;;;;5051802;28;20575;-49
2023/08/25 14:12:15;;;;;;;11.57;9.65;;;21.10;99.90;;;;;;5051919;28;20170;-48
2023/08/25 14:14:41;;;;;;;10.75;9.65;;;24.00;99.90;;;;;;5051268;28;20199;-48